Terminal Aerodrome Forecast
Issued by NWS Burlington, VT

Home | Current Version | Previous Version | Text Only | Print | Product List | Glossary On
Versions: 1 2 3 4 5 6 7 8 9 10 11 12
000
FTUS41 KBTV 281733
TAFBTV
TAF
KBTV 281733Z 2818/2918 14010KT P6SM SCT040
     FM282100 02008KT P6SM SCT040
     FM290000 13005KT P6SM SCT040
     FM290500 VRB03KT P6SM SCT200
     FM291300 03008KT P6SM SCT200=

USA.gov is the U.S. government's official web portal to all federal, state and local government web resources and services.